Time;durP1;ratioP1;P1;durP2;ratioP2;P2;SDS_P1;SDS_P2;PMS_P1;PMS_P2;Temp;Humidity;BMP_temperature;BMP_pressure;BME280_temperature;BME280_humidity;BME280_pressure;Samples;Min_cycle;Max_cycle;Signal;HPM_P1;HPM_P2
2024/01/21 00:02:21;;;;;;;1.77;0.83;;;;;;;;;;6310694;28;20031;-82
2024/01/21 00:05:21;;;;;;;1.90;1.00;;;;;;;;;;6310896;28;20028;-82
2024/01/21 00:08:22;;;;;;;2.27;1.17;;;;;;;;;;6294911;28;20147;-82
2024/01/21 00:11:22;;;;;;;1.47;0.87;;;;;;;;;;6316343;28;20050;-81
2024/01/21 00:14:22;;;;;;;2.00;0.97;;;;;;;;;;6305617;28;20126;-82
2024/01/21 00:17:22;;;;;;;1.17;0.90;;;;;;;;;;6296568;28;20032;-82
2024/01/21 00:20:23;;;;;;;1.70;0.67;;;;;;;;;;6314149;28;20115;-81
2024/01/21 00:23:23;;;;;;;2.20;1.30;;;;;;;;;;6294382;28;20040;-81
2024/01/21 00:26:23;;;;;;;1.57;0.90;;;;;;;;;;6307245;28;20016;-83
2024/01/21 00:29:24;;;;;;;1.97;0.80;;;;;;;;;;6310072;28;20021;-80
2024/01/21 00:32:24;;;;;;;1.37;0.80;;;;;;;;;;6306645;28;20112;-80
2024/01/21 00:35:24;;;;;;;1.07;0.60;;;;;;;;;;6293853;28;20089;-79
2024/01/21 00:38:25;;;;;;;1.10;0.60;;;;;;;;;;6309756;28;20028;-79
2024/01/21 00:41:25;;;;;;;1.33;0.70;;;;;;;;;;6304266;28;20020;-79
2024/01/21 00:44:25;;;;;;;1.03;0.77;;;;;;;;;;6319175;28;20566;-79
2024/01/21 00:47:25;;;;;;;0.93;0.70;;;;;;;;;;6312931;28;20042;-79
2024/01/21 00:50:26;;;;;;;1.20;0.60;;;;;;;;;;6306964;28;20115;-79
2024/01/21 00:53:27;;;;;;;0.73;0.57;;;;;;;;;;6313427;28;20020;-79
2024/01/21 00:56:27;;;;;;;1.67;0.80;;;;;;;;;;6292060;28;20090;-79
2024/01/21 00:59:27;;;;;;;1.10;0.80;;;;;;;;;;6317872;28;20101;-79
2024/01/21 01:02:28;;;;;;;0.93;0.73;;;;;;;;;;6308576;28;20023;-79
2024/01/21 01:05:29;;;;;;;1.10;0.70;;;;;;;;;;6312469;28;20016;-77
2024/01/21 01:08:29;;;;;;;1.20;0.70;;;;;;;;;;6330409;28;20032;-77
2024/01/21 01:11:29;;;;;;;0.57;0.50;;;;;;;;;;6339507;28;20032;-77
2024/01/21 01:14:30;;;;;;;1.00;0.60;;;;;;;;;;6314944;28;20019;-77
2024/01/21 01:17:30;;;;;;;0.50;0.50;;;;;;;;;;6341560;28;20059;-77
2024/01/21 01:20:30;;;;;;;1.40;0.43;;;;;;;;;;6326559;28;20030;-77
2024/01/21 01:23:31;;;;;;;1.23;0.40;;;;;;;;;;6336357;28;20504;-77
2024/01/21 01:26:31;;;;;;;1.47;0.70;;;;;;;;;;6342641;28;20465;-77
2024/01/21 01:29:31;;;;;;;1.00;0.60;;;;;;;;;;6328121;28;20474;-77
2024/01/21 01:32:31;;;;;;;1.40;0.70;;;;;;;;;;6334789;28;20106;-77
2024/01/21 01:35:32;;;;;;;1.00;0.60;;;;;;;;;;6310456;28;20027;-77
2024/01/21 01:38:32;;;;;;;1.07;0.60;;;;;;;;;;6322807;28;20032;-77
2024/01/21 01:41:33;;;;;;;0.93;0.60;;;;;;;;;;6343109;28;20074;-76
2024/01/21 01:44:33;;;;;;;0.93;0.47;;;;;;;;;;6343033;28;20073;-77
2024/01/21 01:47:33;;;;;;;0.70;0.53;;;;;;;;;;6335182;28;20046;-76
2024/01/21 01:50:34;;;;;;;0.47;0.40;;;;;;;;;;6340081;28;20492;-76
2024/01/21 01:53:35;;;;;;;0.60;0.40;;;;;;;;;;6317590;28;20028;-76
2024/01/21 01:56:35;;;;;;;0.90;0.50;;;;;;;;;;6326893;28;20073;-76
2024/01/21 01:59:36;;;;;;;0.97;0.60;;;;;;;;;;6328371;28;20028;-77
2024/01/21 02:02:37;;;;;;;1.27;0.35;;;;;;;;;;6318627;28;20395;-76
2024/01/21 02:05:37;;;;;;;0.50;0.43;;;;;;;;;;6320277;28;20028;-76
2024/01/21 02:08:37;;;;;;;0.87;0.67;;;;;;;;;;6342132;28;20053;-76
2024/01/21 02:11:37;;;;;;;0.70;0.60;;;;;;;;;;6347938;28;20019;-76
2024/01/21 02:14:38;;;;;;;0.80;0.50;;;;;;;;;;6340478;28;20441;-76
2024/01/21 02:17:38;;;;;;;0.80;0.67;;;;;;;;;;6342491;28;20024;-76
2024/01/21 02:20:39;;;;;;;1.00;0.70;;;;;;;;;;6339786;28;20090;-76
2024/01/21 02:23:39;;;;;;;1.50;0.80;;;;;;;;;;6337589;28;20118;-76
2024/01/21 02:26:39;;;;;;;1.90;0.70;;;;;;;;;;6326325;28;20318;-76
2024/01/21 02:29:40;;;;;;;1.73;0.97;;;;;;;;;;6335767;28;20077;-76
2024/01/21 02:32:40;;;;;;;1.07;0.90;;;;;;;;;;6340329;28;20463;-76
2024/01/21 02:35:40;;;;;;;1.70;0.90;;;;;;;;;;6348015;28;20419;-77
2024/01/21 02:38:41;;;;;;;1.50;0.70;;;;;;;;;;6340927;28;20034;-77
2024/01/21 02:41:41;;;;;;;1.50;0.77;;;;;;;;;;6331289;28;20016;-76
2024/01/21 02:44:41;;;;;;;1.13;0.80;;;;;;;;;;6324804;28;20051;-77
2024/01/21 02:47:41;;;;;;;1.00;0.63;;;;;;;;;;6339185;28;20020;-77
2024/01/21 02:50:42;;;;;;;1.23;0.50;;;;;;;;;;6342125;28;20040;-77
2024/01/21 02:53:42;;;;;;;1.47;0.80;;;;;;;;;;6338748;28;20383;-77
2024/01/21 02:56:42;;;;;;;1.40;0.80;;;;;;;;;;6342823;28;20035;-77
2024/01/21 02:59:42;;;;;;;3.70;1.63;;;;;;;;;;6344266;28;20032;-77
2024/01/21 03:02:43;;;;;;;1.90;1.47;;;;;;;;;;6340279;28;20528;-77
2024/01/21 03:05:43;;;;;;;1.40;0.87;;;;;;;;;;6346584;28;20019;-77
2024/01/21 03:08:43;;;;;;;1.03;0.80;;;;;;;;;;6348521;28;20107;-77
2024/01/21 03:11:43;;;;;;;0.53;0.53;;;;;;;;;;6339199;28;20027;-77
2024/01/21 03:14:44;;;;;;;1.00;0.70;;;;;;;;;;6346448;28;20031;-76
2024/01/21 03:17:44;;;;;;;0.77;0.50;;;;;;;;;;6330550;28;20053;-77
2024/01/21 03:20:44;;;;;;;0.90;0.50;;;;;;;;;;6345605;28;20102;-77
2024/01/21 03:23:45;;;;;;;1.10;0.60;;;;;;;;;;6344260;28;20012;-77
2024/01/21 03:26:45;;;;;;;1.20;0.70;;;;;;;;;;6315702;28;20043;-80
2024/01/21 03:29:45;;;;;;;1.27;0.60;;;;;;;;;;6338774;28;20077;-78
2024/01/21 03:32:46;;;;;;;1.33;0.90;;;;;;;;;;6339765;28;20026;-79
2024/01/21 03:35:47;;;;;;;0.70;0.63;;;;;;;;;;6340726;28;20046;-79
2024/01/21 03:38:50;;;;;;;1.50;0.68;;;;;;;;;;6330207;28;20023;-79
2024/01/21 03:41:50;;;;;;;1.10;0.68;;;;;;;;;;6331094;28;20042;-79
2024/01/21 03:44:51;;;;;;;0.67;0.50;;;;;;;;;;6331365;28;20073;-79
2024/01/21 03:47:51;;;;;;;0.90;0.68;;;;;;;;;;6325687;28;20032;-78
2024/01/21 03:50:52;;;;;;;1.63;0.70;;;;;;;;;;6343692;28;20377;-79
2024/01/21 03:53:52;;;;;;;1.27;0.70;;;;;;;;;;6344541;28;20031;-79
2024/01/21 03:56:52;;;;;;;2.33;0.60;;;;;;;;;;6314886;28;20028;-79
2024/01/21 03:59:53;;;;;;;0.50;0.50;;;;;;;;;;6337925;28;20056;-78
2024/01/21 04:02:53;;;;;;;0.60;0.60;;;;;;;;;;6339557;28;20063;-78
2024/01/21 04:05:53;;;;;;;0.77;0.43;;;;;;;;;;6327912;28;20488;-78
2024/01/21 04:08:53;;;;;;;1.00;0.70;;;;;;;;;;6304104;28;20020;-78
2024/01/21 04:11:54;;;;;;;1.00;0.50;;;;;;;;;;6333760;28;20027;-78
2024/01/21 04:14:54;;;;;;;1.13;0.50;;;;;;;;;;6331087;28;20020;-78
2024/01/21 04:17:54;;;;;;;1.30;0.70;;;;;;;;;;6330033;28;20472;-78
2024/01/21 04:20:54;;;;;;;1.00;0.50;;;;;;;;;;6337290;28;20054;-78
2024/01/21 04:23:55;;;;;;;0.87;0.77;;;;;;;;;;6337905;28;20019;-78
2024/01/21 04:26:55;;;;;;;1.13;0.67;;;;;;;;;;6345748;28;20047;-78
2024/01/21 04:29:55;;;;;;;0.47;0.43;;;;;;;;;;6329600;28;20020;-78
2024/01/21 04:32:56;;;;;;;0.80;0.60;;;;;;;;;;6329993;28;20020;-79
2024/01/21 04:35:56;;;;;;;0.80;0.47;;;;;;;;;;6334272;28;20320;-78
2024/01/21 04:38:56;;;;;;;1.27;0.50;;;;;;;;;;6340271;28;20020;-78
2024/01/21 04:41:56;;;;;;;1.23;0.50;;;;;;;;;;6313811;28;20031;-78
2024/01/21 04:44:57;;;;;;;0.50;0.50;;;;;;;;;;6318934;28;20024;-78
2024/01/21 04:47:57;;;;;;;0.47;0.40;;;;;;;;;;6337051;28;20024;-78
2024/01/21 04:50:57;;;;;;;1.07;0.40;;;;;;;;;;6330984;28;20388;-78
2024/01/21 04:53:58;;;;;;;0.43;0.40;;;;;;;;;;6335326;28;20020;-78
2024/01/21 04:56:58;;;;;;;0.97;0.50;;;;;;;;;;6313919;28;20031;-78
2024/01/21 04:59:58;;;;;;;1.53;0.70;;;;;;;;;;6334513;28;20061;-78
2024/01/21 05:02:59;;;;;;;1.13;0.50;;;;;;;;;;6345633;28;20407;-78
2024/01/21 05:05:59;;;;;;;1.27;0.70;;;;;;;;;;6307363;28;20130;-78
2024/01/21 05:08:59;;;;;;;0.53;0.40;;;;;;;;;;6328501;28;20020;-78
2024/01/21 05:11:59;;;;;;;1.13;0.40;;;;;;;;;;6337864;28;20498;-78
2024/01/21 05:15:00;;;;;;;0.90;0.40;;;;;;;;;;6311782;28;20024;-78
2024/01/21 05:18:00;;;;;;;1.00;0.60;;;;;;;;;;6330528;28;20022;-78
2024/01/21 05:21:00;;;;;;;0.57;0.37;;;;;;;;;;6333904;28;20035;-79
2024/01/21 05:24:01;;;;;;;0.97;0.50;;;;;;;;;;6329355;28;20125;-79
2024/01/21 05:27:01;;;;;;;0.83;0.50;;;;;;;;;;6340532;28;20020;-79
2024/01/21 05:30:01;;;;;;;0.93;0.40;;;;;;;;;;6329634;28;20070;-79
2024/01/21 05:33:01;;;;;;;1.33;0.60;;;;;;;;;;6324949;28;20075;-79
2024/01/21 05:36:02;;;;;;;1.63;0.50;;;;;;;;;;6332115;28;20493;-79
2024/01/21 05:39:03;;;;;;;1.13;0.50;;;;;;;;;;6312846;28;20031;-79
2024/01/21 05:42:05;;;;;;;1.77;0.70;;;;;;;;;;6332774;28;20035;-79
2024/01/21 05:45:05;;;;;;;1.92;0.63;;;;;;;;;;6312214;28;20027;-77
2024/01/21 05:48:06;;;;;;;1.97;0.70;;;;;;;;;;6316469;28;20028;-77
2024/01/21 05:51:07;;;;;;;1.33;0.77;;;;;;;;;;6349376;28;20020;-77
2024/01/21 05:54:07;;;;;;;1.47;0.70;;;;;;;;;;6341087;28;20027;-77
2024/01/21 05:57:07;;;;;;;1.47;0.77;;;;;;;;;;6339915;28;20483;-77
2024/01/21 06:00:08;;;;;;;2.30;0.67;;;;;;;;;;6340253;28;20460;-78
2024/01/21 06:03:08;;;;;;;0.80;0.60;;;;;;;;;;6344138;28;20020;-78
2024/01/21 06:06:08;;;;;;;0.93;0.60;;;;;;;;;;6328487;28;20057;-78
2024/01/21 06:09:08;;;;;;;0.50;0.50;;;;;;;;;;6341322;28;20371;-77
2024/01/21 06:12:09;;;;;;;1.10;0.77;;;;;;;;;;6342983;28;20420;-78
2024/01/21 06:15:11;;;;;;;0.57;0.57;;;;;;;;;;6331962;28;20022;-79
2024/01/21 06:18:11;;;;;;;1.08;0.60;;;;;;;;;;6345922;28;20043;-79
2024/01/21 06:21:13;;;;;;;2.73;0.40;;;;;;;;;;6328737;28;20026;-81
2024/01/21 06:24:13;;;;;;;0.90;0.55;;;;;;;;;;6340736;28;20095;-79
2024/01/21 06:27:13;;;;;;;1.43;0.67;;;;;;;;;;6334993;28;20034;-79
2024/01/21 06:30:14;;;;;;;0.50;0.50;;;;;;;;;;6347521;28;20252;-79
2024/01/21 06:33:14;;;;;;;0.80;0.50;;;;;;;;;;6337773;28;20051;-80
2024/01/21 06:36:14;;;;;;;0.60;0.40;;;;;;;;;;6337851;28;20035;-80
2024/01/21 06:39:15;;;;;;;0.53;0.50;;;;;;;;;;6325005;28;20511;-79
2024/01/21 06:42:15;;;;;;;0.77;0.50;;;;;;;;;;6322360;28;20023;-79
2024/01/21 06:45:15;;;;;;;1.10;0.63;;;;;;;;;;6319231;28;20023;-79
2024/01/21 06:48:16;;;;;;;1.17;0.60;;;;;;;;;;6314324;28;20055;-79
2024/01/21 06:54:42;;;;;;;1.50;0.70;;;;;;;;;;6305364;28;20024;-79
2024/01/21 06:57:42;;;;;;;1.40;0.73;;;;;;;;;;6339311;28;20067;-79
2024/01/21 07:00:44;;;;;;;0.70;0.57;;;;;;;;;;6332116;28;20028;-79
2024/01/21 07:03:45;;;;;;;1.13;0.63;;;;;;;;;;6337803;28;20024;-79
2024/01/21 07:06:45;;;;;;;0.77;0.55;;;;;;;;;;6334427;28;20062;-79
2024/01/21 07:09:46;;;;;;;1.17;0.67;;;;;;;;;;6329413;28;20453;-79
2024/01/21 07:12:46;;;;;;;0.77;0.60;;;;;;;;;;6336337;28;20506;-79
2024/01/21 07:15:46;;;;;;;1.60;0.70;;;;;;;;;;6322125;28;20027;-79
2024/01/21 07:18:47;;;;;;;2.07;0.90;;;;;;;;;;6325931;28;20023;-79
2024/01/21 07:21:47;;;;;;;1.50;0.90;;;;;;;;;;6341790;28;20015;-81
2024/01/21 07:24:47;;;;;;;1.37;0.70;;;;;;;;;;6313276;28;20047;-81
2024/01/21 07:27:48;;;;;;;1.00;0.67;;;;;;;;;;6338497;28;20062;-81
2024/01/21 07:30:48;;;;;;;1.20;0.93;;;;;;;;;;6335176;28;20425;-81
2024/01/21 07:33:48;;;;;;;1.13;0.70;;;;;;;;;;6331224;28;20028;-81
2024/01/21 07:36:49;;;;;;;1.33;0.70;;;;;;;;;;6317478;28;20464;-80
2024/01/21 07:39:49;;;;;;;1.67;0.60;;;;;;;;;;6321829;28;20365;-80
2024/01/21 07:42:49;;;;;;;0.87;0.50;;;;;;;;;;6340239;28;20030;-81
2024/01/21 07:45:50;;;;;;;0.60;0.53;;;;;;;;;;6335467;28;20383;-81
2024/01/21 07:48:50;;;;;;;0.47;0.40;;;;;;;;;;6344202;28;20468;-80
2024/01/21 07:51:50;;;;;;;0.77;0.50;;;;;;;;;;6332084;28;20027;-80
2024/01/21 07:54:51;;;;;;;1.00;0.63;;;;;;;;;;6331783;28;20585;-80
2024/01/21 07:57:51;;;;;;;0.87;0.70;;;;;;;;;;6330531;28;20032;-81
2024/01/21 08:00:51;;;;;;;1.90;0.73;;;;;;;;;;6343861;28;20031;-80
2024/01/21 08:03:51;;;;;;;1.97;1.23;;;;;;;;;;6339889;28;20028;-80
2024/01/21 08:06:52;;;;;;;1.10;0.90;;;;;;;;;;6338505;28;20385;-80
2024/01/21 08:09:52;;;;;;;1.53;1.00;;;;;;;;;;6339259;28;20651;-82
2024/01/21 08:12:52;;;;;;;2.07;1.00;;;;;;;;;;6330291;28;20032;-81
2024/01/21 08:15:53;;;;;;;3.50;1.10;;;;;;;;;;6321140;28;20024;-88
2024/01/21 08:18:53;;;;;;;2.50;1.10;;;;;;;;;;6340738;28;20127;-89
2024/01/21 08:21:53;;;;;;;1.47;0.90;;;;;;;;;;6339193;28;20077;-89
2024/01/21 08:24:54;;;;;;;2.03;1.00;;;;;;;;;;6346105;28;20061;-89
2024/01/21 08:27:54;;;;;;;2.72;0.95;;;;;;;;;;6342109;28;20041;-88
2024/01/21 08:30:55;;;;;;;1.67;1.13;;;;;;;;;;6334280;28;20036;-88
2024/01/21 08:33:56;;;;;;;2.20;1.23;;;;;;;;;;6344383;28;20024;-87
2024/01/21 08:36:56;;;;;;;1.40;0.80;;;;;;;;;;6339287;28;20020;-89
2024/01/21 08:39:56;;;;;;;2.00;1.10;;;;;;;;;;6340632;28;20020;-89
2024/01/21 08:42:57;;;;;;;1.37;1.10;;;;;;;;;;6337939;28;20027;-89
2024/01/21 08:45:57;;;;;;;1.37;0.83;;;;;;;;;;6329523;28;20020;-89
2024/01/21 08:48:57;;;;;;;2.77;1.30;;;;;;;;;;6336059;28;20020;-88
2024/01/21 08:51:58;;;;;;;2.10;0.87;;;;;;;;;;6338500;28;20039;-87
2024/01/21 08:54:58;;;;;;;2.80;1.00;;;;;;;;;;6344406;28;20032;-88
2024/01/21 08:57:58;;;;;;;2.87;0.80;;;;;;;;;;6315877;28;20016;-90
2024/01/21 09:00:59;;;;;;;1.60;0.80;;;;;;;;;;6341015;28;20377;-90
2024/01/21 09:03:59;;;;;;;1.90;0.80;;;;;;;;;;6339388;28;20027;-90
2024/01/21 09:06:59;;;;;;;0.80;0.70;;;;;;;;;;6336448;28;20040;-89
2024/01/21 09:10:00;;;;;;;1.60;0.70;;;;;;;;;;6332817;28;20087;-90
2024/01/21 09:13:00;;;;;;;4.07;1.07;;;;;;;;;;6322062;28;20028;-88
2024/01/21 09:16:00;;;;;;;1.83;1.00;;;;;;;;;;6353717;28;20066;-89
2024/01/21 09:19:01;;;;;;;1.30;0.80;;;;;;;;;;6354980;28;20088;-90
2024/01/21 09:22:01;;;;;;;1.33;0.70;;;;;;;;;;6331169;28;20028;-91
2024/01/21 09:25:05;;;;;;;1.27;0.93;;;;;;;;;;6323123;28;20168;-82
2024/01/21 09:28:05;;;;;;;1.02;0.85;;;;;;;;;;6337715;28;20020;-91
2024/01/21 09:31:06;;;;;;;1.17;0.70;;;;;;;;;;6338215;28;20098;-92
2024/01/21 09:34:06;;;;;;;2.00;0.90;;;;;;;;;;6354575;28;20110;-91
2024/01/21 09:37:06;;;;;;;1.47;0.97;;;;;;;;;;6337696;28;20353;-91
2024/01/21 09:40:07;;;;;;;1.57;0.93;;;;;;;;;;6322036;28;20020;-92
2024/01/21 09:43:07;;;;;;;1.53;0.90;;;;;;;;;;6351246;28;20027;-91
2024/01/21 09:46:10;;;;;;;0.90;0.70;;;;;;;;;;6340349;28;20041;-91
2024/01/21 09:49:11;;;;;;;2.00;0.70;;;;;;;;;;6346473;28;20030;-92
2024/01/21 09:52:12;;;;;;;0.88;0.68;;;;;;;;;;6341243;28;20118;-90
2024/01/21 09:55:12;;;;;;;1.08;0.75;;;;;;;;;;6324674;28;20113;-92
2024/01/21 09:58:15;;;;;;;1.00;0.57;;;;;;;;;;6347949;28;20027;-92
2024/01/21 10:01:16;;;;;;;1.45;0.70;;;;;;;;;;6337477;28;20011;-91
2024/01/21 10:04:17;;;;;;;2.40;1.15;;;;;;;;;;6322691;28;20038;-91
2024/01/21 10:07:17;;;;;;;1.63;1.05;;;;;;;;;;6325424;28;20096;-92
2024/01/21 10:10:18;;;;;;;1.20;0.90;;;;;;;;;;6330487;28;20035;-91
2024/01/21 10:13:18;;;;;;;1.27;0.80;;;;;;;;;;6342978;28;20035;-88
2024/01/21 10:16:18;;;;;;;1.63;0.80;;;;;;;;;;6346819;28;20023;-88
2024/01/21 10:19:29;;;;;;;1.67;0.77;;;;;;;;;;6325323;28;20320;-85
2024/01/21 10:22:29;;;;;;;1.20;0.90;;;;;;;;;;6340313;28;20024;-87
2024/01/21 10:25:29;;;;;;;1.27;0.67;;;;;;;;;;6337171;28;20478;-87
2024/01/21 10:28:32;;;;;;;0.67;0.60;;;;;;;;;;6343576;28;20046;-84
2024/01/21 10:31:33;;;;;;;1.30;0.82;;;;;;;;;;6334788;28;20488;-83
2024/01/21 10:34:34;;;;;;;0.80;0.65;;;;;;;;;;6339534;28;20410;-82
2024/01/21 10:37:36;;;;;;;1.47;0.80;;;;;;;;;;6342203;28;20047;-86
2024/01/21 10:40:43;;;;;;;1.92;0.80;;;;;;;;;;6347348;28;20104;-89
2024/01/21 10:43:44;;;;;;;2.10;0.88;;;;;;;;;;6338689;28;20484;-85
2024/01/21 10:46:45;;;;;;;1.52;0.80;;;;;;;;;;6344406;28;20035;-82
2024/01/21 10:49:48;;;;;;;1.58;0.65;;;;;;;;;;6337371;28;20028;-82
2024/01/21 10:52:49;;;;;;;0.95;0.60;;;;;;;;;;6342860;28;20043;-87
2024/01/21 10:55:50;;;;;;;1.10;0.70;;;;;;;;;;6316304;28;20088;-83
2024/01/21 10:58:51;;;;;;;1.52;0.90;;;;;;;;;;6339431;28;20289;-87
2024/01/21 11:01:52;;;;;;;1.73;0.80;;;;;;;;;;6342251;28;20031;-87
2024/01/21 11:04:54;;;;;;;1.70;1.00;;;;;;;;;;6335910;28;20032;-87
2024/01/21 11:08:01;;;;;;;0.90;0.70;;;;;;;;;;6345888;28;20051;-87
2024/01/21 11:11:06;;;;;;;1.60;0.90;;;;;;;;;;6325911;28;20035;-86
2024/01/21 11:14:30;;;;;;;1.35;0.80;;;;;;;;;;6345377;28;20538;-87
2024/01/21 11:17:31;;;;;;;2.00;0.77;;;;;;;;;;6330198;28;20044;-87
2024/01/21 11:20:33;;;;;;;2.13;0.90;;;;;;;;;;6335356;28;20035;-87
2024/01/21 11:23:33;;;;;;;1.65;0.90;;;;;;;;;;6331202;28;20027;-86
2024/01/21 11:26:37;;;;;;;2.00;1.40;;;;;;;;;;6340628;28;20429;-86
2024/01/21 11:29:37;;;;;;;2.38;1.33;;;;;;;;;;6339041;27;20023;-86
2024/01/21 11:32:40;;;;;;;1.80;1.03;;;;;;;;;;6331752;28;20577;-86
2024/01/21 11:35:41;;;;;;;1.52;1.00;;;;;;;;;;6330525;28;20072;-87
2024/01/21 11:38:43;;;;;;;0.93;0.80;;;;;;;;;;6329130;28;20036;-86
2024/01/21 11:41:43;;;;;;;1.42;0.90;;;;;;;;;;6345362;28;20418;-86
2024/01/21 11:44:44;;;;;;;1.63;1.00;;;;;;;;;;6329123;28;20099;-87
2024/01/21 11:47:46;;;;;;;1.70;0.95;;;;;;;;;;6342367;28;20059;-86
2024/01/21 11:50:46;;;;;;;1.50;1.00;;;;;;;;;;6343961;28;20080;-83
2024/01/21 11:53:47;;;;;;;1.87;0.87;;;;;;;;;;6330059;28;20051;-84
2024/01/21 11:56:49;;;;;;;1.20;0.90;;;;;;;;;;6336782;28;20029;-84
2024/01/21 11:59:49;;;;;;;1.48;1.13;;;;;;;;;;6340859;28;20114;-83
2024/01/21 12:02:50;;;;;;;1.70;1.10;;;;;;;;;;6343495;28;20449;-86
2024/01/21 12:05:51;;;;;;;1.63;1.00;;;;;;;;;;6334514;28;20056;-85
2024/01/21 12:08:51;;;;;;;1.40;0.97;;;;;;;;;;6303400;28;20094;-85
2024/01/21 12:11:51;;;;;;;2.03;1.00;;;;;;;;;;6306223;28;20050;-86
2024/01/21 12:14:52;;;;;;;1.33;1.00;;;;;;;;;;6335009;28;20080;-84
2024/01/21 12:17:55;;;;;;;1.50;0.87;;;;;;;;;;6328164;28;20628;-86
2024/01/21 12:20:55;;;;;;;1.55;0.85;;;;;;;;;;6337664;28;20043;-84
2024/01/21 12:23:57;;;;;;;0.80;0.77;;;;;;;;;;6310215;28;20453;-86
2024/01/21 12:26:57;;;;;;;3.05;1.00;;;;;;;;;;6336344;28;20034;-86
2024/01/21 12:29:57;;;;;;;1.03;0.63;;;;;;;;;;6311783;28;20035;-87
2024/01/21 12:32:58;;;;;;;1.57;1.13;;;;;;;;;;6340007;28;20031;-86
2024/01/21 12:35:58;;;;;;;2.67;1.20;;;;;;;;;;6337030;28;20028;-85
2024/01/21 12:38:59;;;;;;;2.90;1.07;;;;;;;;;;6330545;28;20065;-86
2024/01/21 12:41:59;;;;;;;1.47;0.90;;;;;;;;;;6340116;28;20574;-86
2024/01/21 12:44:59;;;;;;;1.83;1.00;;;;;;;;;;6317056;28;20028;-87
2024/01/21 12:48:00;;;;;;;1.60;0.90;;;;;;;;;;6336521;28;20058;-87
2024/01/21 12:51:00;;;;;;;0.97;0.80;;;;;;;;;;6308835;28;20052;-86
2024/01/21 12:54:00;;;;;;;1.10;0.80;;;;;;;;;;6334361;28;20028;-87
2024/01/21 12:57:02;;;;;;;1.10;0.90;;;;;;;;;;6320204;28;20050;-87
2024/01/21 13:00:04;;;;;;;1.42;0.90;;;;;;;;;;6341010;28;20023;-86
2024/01/21 13:03:04;;;;;;;;;;;;;;;;;;6338653;28;20024;-87
2024/01/21 13:06:05;;;;;;;1.10;0.80;;;;;;;;;;6334715;28;19965;-86
2024/01/21 13:09:06;;;;;;;1.30;0.70;;;;;;;;;;6345728;28;20036;-86
2024/01/21 13:12:06;;;;;;;1.20;0.80;;;;;;;;;;6311967;28;20110;-86
2024/01/21 13:15:08;;;;;;;1.93;0.70;;;;;;;;;;6338462;28;20046;-87
2024/01/21 13:18:08;;;;;;;1.92;1.00;;;;;;;;;;6330728;28;20096;-82
2024/01/21 13:21:11;;;;;;;0.93;0.87;;;;;;;;;;6324074;28;20033;-84
2024/01/21 13:24:11;;;;;;;1.50;1.05;;;;;;;;;;6328154;28;20052;-84
2024/01/21 13:27:16;;;;;;;2.23;1.10;;;;;;;;;;6346200;28;20034;-85
2024/01/21 13:33:37;;;;;;;1.20;0.88;;;;;;;;;;6334895;28;20035;-83
2024/01/21 13:36:37;;;;;;;1.30;1.00;;;;;;;;;;6334269;28;20452;-86
2024/01/21 13:39:37;;;;;;;1.70;1.17;;;;;;;;;;5983022;28;10000145;-85
2024/01/21 13:42:37;;;;;;;1.40;1.10;;;;;;;;;;6327402;28;20810;-85
2024/01/21 13:45:39;;;;;;;1.33;1.10;;;;;;;;;;6321442;28;20028;-84
2024/01/21 13:48:39;;;;;;;1.58;1.08;;;;;;;;;;6327734;28;20016;-86
2024/01/21 13:51:39;;;;;;;1.20;1.10;;;;;;;;;;6332460;28;20031;-86
2024/01/21 13:54:39;;;;;;;2.80;1.27;;;;;;;;;;6335498;28;20028;-85
2024/01/21 13:57:40;;;;;;;1.17;1.00;;;;;;;;;;6336544;28;20019;-84
2024/01/21 14:00:40;;;;;;;3.03;1.40;;;;;;;;;;6337988;28;20468;-81
2024/01/21 14:03:40;;;;;;;1.67;1.27;;;;;;;;;;6333511;28;20023;-82
2024/01/21 14:06:41;;;;;;;2.70;1.33;;;;;;;;;;6339231;28;20044;-76
2024/01/21 14:09:42;;;;;;;2.50;1.50;;;;;;;;;;6337224;28;20019;-76
2024/01/21 14:12:43;;;;;;;2.17;1.50;;;;;;;;;;6336988;28;20461;-77
2024/01/21 14:15:44;;;;;;;2.80;1.52;;;;;;;;;;6338556;28;20031;-76
2024/01/21 14:18:46;;;;;;;3.13;1.80;;;;;;;;;;6337289;28;20035;-76
2024/01/21 14:21:47;;;;;;;3.28;1.83;;;;;;;;;;6344215;28;20023;-77
2024/01/21 14:24:49;;;;;;;2.65;1.70;;;;;;;;;;6334390;28;20499;-76
2024/01/21 14:27:50;;;;;;;3.20;1.48;;;;;;;;;;6327305;28;20108;-76
2024/01/21 14:30:50;;;;;;;2.37;1.60;;;;;;;;;;6341462;28;20023;-76
2024/01/21 14:33:50;;;;;;;2.33;1.50;;;;;;;;;;6340001;28;20034;-77
2024/01/21 14:36:51;;;;;;;2.00;1.40;;;;;;;;;;6341252;28;20011;-75
2024/01/21 14:39:51;;;;;;;2.13;1.57;;;;;;;;;;6346420;28;20114;-76
2024/01/21 14:42:52;;;;;;;1.67;1.47;;;;;;;;;;6338630;28;20038;-76
2024/01/21 14:45:52;;;;;;;2.77;1.70;;;;;;;;;;6347703;28;20027;-76
2024/01/21 14:48:53;;;;;;;2.40;1.90;;;;;;;;;;6349233;28;20032;-78
2024/01/21 14:51:53;;;;;;;2.37;1.73;;;;;;;;;;6339254;28;20050;-77
2024/01/21 14:54:54;;;;;;;2.27;1.90;;;;;;;;;;6337191;28;20491;-78
2024/01/21 14:57:59;;;;;;;2.13;1.70;;;;;;;;;;6332757;28;20761;-79
2024/01/21 15:00:59;;;;;;;2.92;1.77;;;;;;;;;;6322145;28;20039;-77
2024/01/21 15:04:00;;;;;;;2.73;1.83;;;;;;;;;;6343587;28;20020;-78
2024/01/21 15:07:00;;;;;;;3.97;2.03;;;;;;;;;;6314319;28;20485;-78
2024/01/21 15:10:00;;;;;;;2.53;1.60;;;;;;;;;;6313839;28;20114;-78
2024/01/21 15:13:05;;;;;;;4.63;1.77;;;;;;;;;;6322992;28;20020;-78
2024/01/21 15:16:06;;;;;;;4.22;1.80;;;;;;;;;;6313922;28;20392;-82
2024/01/21 15:19:06;;;;;;;2.25;1.70;;;;;;;;;;6315608;28;20020;-81
2024/01/21 15:22:07;;;;;;;4.20;2.10;;;;;;;;;;6311268;28;20017;-82
2024/01/21 15:25:07;;;;;;;3.40;2.00;;;;;;;;;;6316970;28;20471;-82
2024/01/21 15:28:07;;;;;;;2.87;2.03;;;;;;;;;;6308651;28;20107;-80
2024/01/21 15:31:08;;;;;;;2.10;1.80;;;;;;;;;;6315612;28;20020;-81
2024/01/21 15:34:08;;;;;;;3.50;2.03;;;;;;;;;;6313648;28;20028;-81
2024/01/21 15:37:08;;;;;;;2.20;1.80;;;;;;;;;;6313101;28;20097;-80
2024/01/21 15:40:09;;;;;;;2.60;1.93;;;;;;;;;;6308963;28;20040;-84
2024/01/21 15:43:09;;;;;;;2.17;1.97;;;;;;;;;;6307242;28;20526;-85
2024/01/21 15:46:09;;;;;;;2.53;1.70;;;;;;;;;;6304300;28;20495;-86
2024/01/21 15:49:10;;;;;;;3.87;2.10;;;;;;;;;;6316838;28;20031;-86
2024/01/21 15:52:10;;;;;;;2.93;1.97;;;;;;;;;;6315708;28;20453;-86
2024/01/21 15:55:13;;;;;;;3.97;1.87;;;;;;;;;;6321612;28;20016;-86
2024/01/21 15:58:13;;;;;;;2.58;1.98;;;;;;;;;;6310709;28;20494;-86
2024/01/21 16:01:14;;;;;;;3.50;2.27;;;;;;;;;;6310725;28;20046;-86
2024/01/21 16:04:14;;;;;;;2.90;1.93;;;;;;;;;;6310628;28;20016;-86
2024/01/21 16:07:21;;;;;;;3.83;1.87;;;;;;;;;;6313044;28;20055;-86
2024/01/21 16:10:21;;;;;;;4.25;2.50;;;;;;;;;;6314430;28;20028;-86
2024/01/21 16:13:21;;;;;;;4.57;2.67;;;;;;;;;;6315857;28;20050;-86
2024/01/21 16:16:22;;;;;;;5.20;3.30;;;;;;;;;;6314512;28;20123;-85
2024/01/21 16:19:22;;;;;;;5.60;3.40;;;;;;;;;;6311367;28;20020;-86
2024/01/21 16:22:22;;;;;;;5.57;3.03;;;;;;;;;;6314732;28;20077;-87
2024/01/21 16:25:23;;;;;;;4.27;2.93;;;;;;;;;;6298986;28;20047;-78
2024/01/21 16:28:23;;;;;;;5.47;3.00;;;;;;;;;;6320687;28;20546;-79
2024/01/21 16:31:23;;;;;;;4.27;3.20;;;;;;;;;;6312672;28;20020;-78
2024/01/21 16:34:24;;;;;;;4.40;3.20;;;;;;;;;;6309068;28;20094;-78
2024/01/21 16:37:24;;;;;;;6.00;3.17;;;;;;;;;;6313363;28;20118;-78
2024/01/21 16:40:24;;;;;;;5.10;3.37;;;;;;;;;;6315324;28;20019;-78
2024/01/21 16:43:25;;;;;;;6.13;4.10;;;;;;;;;;6309539;28;20031;-78
2024/01/21 16:46:25;;;;;;;6.50;3.70;;;;;;;;;;6318712;28;20024;-78
2024/01/21 16:49:26;;;;;;;6.30;3.87;;;;;;;;;;6312098;28;20091;-78
2024/01/21 16:52:31;;;;;;;5.15;3.55;;;;;;;;;;6304008;28;20119;-78
2024/01/21 16:55:31;;;;;;;5.70;3.53;;;;;;;;;;6313937;28;20372;-77
2024/01/21 16:58:32;;;;;;;5.93;4.10;;;;;;;;;;6303274;28;20063;-79
2024/01/21 17:01:33;;;;;;;5.93;3.70;;;;;;;;;;6318823;28;20419;-79
2024/01/21 17:04:33;;;;;;;6.60;4.15;;;;;;;;;;6311432;28;20067;-79
2024/01/21 17:07:33;;;;;;;8.30;4.60;;;;;;;;;;6331664;28;20073;-79
2024/01/21 17:10:38;;;;;;;6.67;4.10;;;;;;;;;;6339522;28;20461;-79
2024/01/21 17:13:38;;;;;;;6.57;4.40;;;;;;;;;;6340125;28;20026;-79
2024/01/21 17:16:38;;;;;;;6.17;4.00;;;;;;;;;;6329393;28;20016;-84
2024/01/21 17:19:38;;;;;;;8.63;4.93;;;;;;;;;;6335245;28;20036;-84
2024/01/21 17:22:39;;;;;;;6.17;4.57;;;;;;;;;;6327420;28;20161;-84
2024/01/21 17:25:39;;;;;;;8.87;5.40;;;;;;;;;;6312899;28;20058;-77
2024/01/21 17:28:39;;;;;;;8.77;5.67;;;;;;;;;;6334935;28;20030;-76
2024/01/21 17:31:40;;;;;;;7.10;4.57;;;;;;;;;;6336876;28;20114;-77
2024/01/21 17:34:41;;;;;;;7.70;4.25;;;;;;;;;;6323602;28;20019;-77
2024/01/21 17:37:41;;;;;;;7.57;4.87;;;;;;;;;;6339941;28;20024;-82
2024/01/21 17:40:41;;;;;;;16.90;8.33;;;;;;;;;;6335235;28;20472;-83
2024/01/21 17:43:41;;;;;;;16.20;9.03;;;;;;;;;;6339507;27;20028;-84
2024/01/21 17:46:42;;;;;;;16.77;8.27;;;;;;;;;;6340632;28;20032;-84
2024/01/21 17:49:42;;;;;;;14.27;7.17;;;;;;;;;;6331978;28;20459;-83
2024/01/21 17:52:42;;;;;;;13.83;7.17;;;;;;;;;;6338587;28;20040;-83
2024/01/21 17:55:43;;;;;;;12.80;7.20;;;;;;;;;;6336533;28;20019;-82
2024/01/21 17:58:43;;;;;;;25.20;9.30;;;;;;;;;;6339316;28;20072;-83
2024/01/21 18:01:43;;;;;;;20.60;9.30;;;;;;;;;;6333426;28;20051;-84
2024/01/21 18:04:44;;;;;;;18.20;8.10;;;;;;;;;;6336150;28;20039;-85
2024/01/21 18:07:44;;;;;;;14.50;6.80;;;;;;;;;;6342184;28;20162;-84
2024/01/21 18:10:44;;;;;;;16.53;7.60;;;;;;;;;;6325093;28;20417;-85